Chandler, Chandler Municipal Airport (KCHD)

NameChandler Municipal Airport
CityChandler
CountryUnited States
ICAOKCHD
IATA
Altitude379 m
CoordinatesGoogle Map
Live Air TrafficLiveATC.net
METARKCHD 171547Z 06004KT 10SM CLR 17/07 A3011
2018-10-17 15:47:00 Wind: Northeast (60°) 2.06 m/s - Visibility: 16093.4 m - Temperature: 17 °C - Dew point: 7 °C - Humidity: 52% - Pressure: 1019.64 hPa

Sorry, no flights used the airport in this database.